Time;durP1;ratioP1;P1;durP2;ratioP2;P2;SDS_P1;SDS_P2;PMS_P1;PMS_P2;Temp;Humidity;BMP_temperature;BMP_pressure;BME280_temperature;BME280_humidity;BME280_pressure;Samples;Min_cycle;Max_cycle;Signal;HPM_P1;HPM_P2
2022/09/10 00:00:33;;;;;;;13.10;6.35;;;16.20;99.90;;;;;;5053307;28;20384;-75
2022/09/10 00:03:01;;;;;;;16.55;7.50;;;16.10;99.90;;;;;;5053529;28;20060;-75
2022/09/10 00:05:27;;;;;;;15.00;8.18;;;16.10;99.90;;;;;;5051680;28;20028;-75
2022/09/10 00:07:52;;;;;;;17.80;8.82;;;16.10;99.90;;;;;;5053341;28;20033;-75
2022/09/10 00:10:18;;;;;;;12.70;9.00;;;16.10;99.90;;;;;;5053162;28;20017;-75
2022/09/10 00:12:47;;;;;;;12.75;8.52;;;16.10;99.90;;;;;;5052735;28;20032;-75
2022/09/10 00:15:16;;;;;;;12.32;8.35;;;16.10;99.90;;;;;;5053462;28;20040;-74
2022/09/10 00:17:42;;;;;;;14.93;8.67;;;16.00;99.90;;;;;;5053286;28;20029;-74
2022/09/10 00:20:09;;;;;;;14.88;8.68;;;16.00;99.90;;;;;;5052424;28;20062;-74
2022/09/10 00:22:34;;;;;;;10.45;7.90;;;16.00;99.90;;;;;;5053014;28;20128;-74
2022/09/10 00:25:00;;;;;;;12.52;7.72;;;16.00;99.90;;;;;;5053249;28;20049;-74
2022/09/10 00:27:26;;;;;;;9.38;7.30;;;16.00;99.90;;;;;;5052504;28;20485;-75
2022/09/10 00:29:53;;;;;;;10.05;6.28;;;16.00;99.90;;;;;;5053340;28;20036;-75
2022/09/10 00:32:20;;;;;;;8.40;6.93;;;15.90;99.90;;;;;;5053455;28;20025;-75
2022/09/10 00:34:46;;;;;;;8.27;5.30;;;15.90;99.90;;;;;;5052530;28;20063;-75
2022/09/10 00:37:13;;;;;;;6.07;3.92;;;15.90;99.90;;;;;;5053162;28;20104;-75
2022/09/10 00:39:39;;;;;;;8.15;4.53;;;16.00;99.90;;;;;;5052672;28;20508;-74
2022/09/10 00:42:05;;;;;;;7.75;3.25;;;15.90;99.90;;;;;;5053056;28;20091;-75
2022/09/10 00:44:40;;;;;;;5.18;2.90;;;15.90;99.90;;;;;;5053275;28;20033;-75
2022/09/10 00:47:16;;;;;;;5.68;2.60;;;15.80;99.90;;;;;;5052346;28;20021;-75
2022/09/10 00:49:49;;;;;;;4.20;2.13;;;15.70;99.90;;;;;;5053141;28;20120;-75
2022/09/10 00:52:15;;;;;;;3.75;1.63;;;15.70;99.90;;;;;;5053119;28;20021;-74
2022/09/10 00:54:43;;;;;;;4.85;1.98;;;15.70;99.90;;;;;;5052582;28;20032;-75
2022/09/10 00:57:12;;;;;;;3.75;2.00;;;15.70;99.90;;;;;;5053029;28;20031;-75
2022/09/10 00:59:45;;;;;;;2.50;1.65;;;15.70;99.90;;;;;;5052793;28;20025;-75
2022/09/10 01:02:11;;;;;;;2.38;1.88;;;15.70;99.90;;;;;;5052303;28;20033;-74
2022/09/10 01:04:38;;;;;;;2.33;1.48;;;15.60;99.90;;;;;;5053185;28;20045;-75
2022/09/10 01:07:06;;;;;;;4.65;1.80;;;15.60;99.90;;;;;;5053379;28;20032;-75
2022/09/10 01:09:32;;;;;;;2.92;1.73;;;15.70;99.90;;;;;;5054947;28;20504;-74
2022/09/10 01:12:07;;;;;;;7.75;2.00;;;15.60;99.90;;;;;;5059089;28;20021;-74
2022/09/10 01:14:47;;;;;;;5.57;3.10;;;15.60;99.90;;;;;;5058443;28;20032;-74
2022/09/10 01:17:30;;;;;;;3.13;2.80;;;15.60;99.90;;;;;;5060005;28;20021;-75
2022/09/10 01:20:10;;;;;;;4.35;3.15;;;15.60;99.90;;;;;;5068289;28;20033;-75
2022/09/10 01:22:56;;;;;;;3.00;2.70;;;15.60;99.90;;;;;;5065181;28;20048;-75
2022/09/10 01:25:36;;;;;;;6.07;4.85;;;15.60;99.90;;;;;;5058789;28;20045;-74
2022/09/10 01:28:14;;;;;;;6.60;5.90;;;15.60;99.90;;;;;;5057370;28;20099;-75
2022/09/10 01:30:44;;;;;;;8.48;6.80;;;15.60;99.90;;;;;;5055693;28;20096;-74
2022/09/10 01:33:33;;;;;;;8.00;7.20;;;15.60;99.90;;;;;;5056308;28;20465;-74
2022/09/10 01:36:08;;;;;;;9.55;7.43;;;15.70;99.90;;;;;;5056037;28;20087;-74
2022/09/10 01:38:37;;;;;;;9.02;8.20;;;15.70;99.90;;;;;;5056104;28;20102;-75
2022/09/10 01:41:03;;;;;;;10.75;9.63;;;15.70;99.90;;;;;;5056070;28;20033;-75
2022/09/10 01:43:29;;;;;;;13.15;10.18;;;15.70;99.90;;;;;;5055104;28;20025;-75
2022/09/10 01:46:24;;;;;;;15.80;11.52;;;15.70;99.90;;;;;;5055930;28;20029;-75
2022/09/10 01:49:07;;;;;;;13.40;10.80;;;15.70;99.90;;;;;;5055851;28;20025;-75
2022/09/10 01:51:47;;;;;;;13.55;12.20;;;15.80;99.90;;;;;;5055172;28;20444;-75
2022/09/10 01:54:29;;;;;;;13.57;11.95;;;15.80;99.90;;;;;;5055886;28;20114;-75
2022/09/10 01:57:32;;;;;;;16.65;12.27;;;15.90;99.90;;;;;;5055314;28;20029;-75
2022/09/10 02:00:09;;;;;;;13.45;11.80;;;15.90;99.90;;;;;;5055592;28;20025;-75
2022/09/10 02:03:11;;;;;;;15.23;11.65;;;16.00;99.90;;;;;;5055489;28;20124;-75
2022/09/10 02:05:40;;;;;;;12.93;11.15;;;16.00;99.90;;;;;;5054322;28;20029;-75
2022/09/10 02:08:14;;;;;;;14.27;12.05;;;16.10;99.90;;;;;;5055400;28;20037;-76
2022/09/10 02:10:58;;;;;;;15.35;11.43;;;16.10;99.90;;;;;;5055780;28;20029;-75
2022/09/10 02:13:25;;;;;;;18.85;11.70;;;16.10;99.90;;;;;;5055560;28;20031;-75
2022/09/10 02:15:51;;;;;;;12.93;11.23;;;16.20;99.90;;;;;;5055493;28;20025;-75
2022/09/10 02:18:21;;;;;;;14.02;11.52;;;16.10;99.90;;;;;;5055835;28;20104;-75
2022/09/10 02:20:49;;;;;;;13.63;10.60;;;16.10;99.90;;;;;;5056123;28;20068;-75
2022/09/10 02:23:18;;;;;;;11.95;10.73;;;16.20;99.90;;;;;;5054813;28;20049;-75
2022/09/10 02:25:47;;;;;;;15.30;11.20;;;16.20;99.90;;;;;;5054534;28;20036;-76
2022/09/10 02:28:12;;;;;;;15.98;12.02;;;16.20;99.90;;;;;;5054144;28;20064;-75
2022/09/10 02:30:38;;;;;;;12.82;11.15;;;16.20;99.90;;;;;;5054971;28;20473;-75
2022/09/10 02:33:03;;;;;;;13.00;10.90;;;16.20;99.90;;;;;;5054096;28;20111;-75
2022/09/10 02:35:30;;;;;;;13.90;9.52;;;16.10;99.90;;;;;;5055154;28;20466;-75
2022/09/10 02:37:56;;;;;;;11.35;9.98;;;16.10;99.90;;;;;;5055007;28;20370;-75
2022/09/10 02:40:22;;;;;;;13.40;9.90;;;16.10;99.90;;;;;;5054359;28;20044;-75
2022/09/10 02:42:47;;;;;;;13.63;10.20;;;16.10;99.90;;;;;;5054634;28;20068;-75
2022/09/10 02:45:13;;;;;;;11.88;10.65;;;16.10;99.90;;;;;;5055434;28;20064;-74
2022/09/10 02:47:39;;;;;;;12.65;10.73;;;16.20;99.90;;;;;;5054202;28;20029;-74
2022/09/10 02:50:06;;;;;;;16.52;14.90;;;16.10;99.90;;;;;;5060294;28;20036;-75
2022/09/10 02:52:32;;;;;;;15.90;14.15;;;16.10;99.90;;;;;;5059483;28;20036;-74
2022/09/10 02:54:58;;;;;;;15.80;14.23;;;16.10;99.90;;;;;;5055875;28;20025;-74
2022/09/10 02:57:24;;;;;;;17.15;15.65;;;16.10;99.90;;;;;;5061332;28;20040;-75
2022/09/10 02:59:50;;;;;;;15.65;14.18;;;16.10;99.90;;;;;;5064976;28;20461;-73
2022/09/10 03:02:16;;;;;;;15.82;14.23;;;16.00;99.90;;;;;;5062188;28;20028;-75
2022/09/10 03:04:41;;;;;;;17.50;14.90;;;16.10;99.90;;;;;;5062127;28;20074;-75
2022/09/10 03:07:07;;;;;;;16.90;14.57;;;16.00;99.90;;;;;;5061389;28;20078;-73
2022/09/10 03:09:34;;;;;;;15.13;13.80;;;16.00;99.90;;;;;;5058965;28;20049;-74
2022/09/10 03:12:00;;;;;;;14.93;13.30;;;16.00;99.90;;;;;;5063127;28;20029;-74
2022/09/10 03:14:27;;;;;;;14.60;13.40;;;16.10;99.90;;;;;;5061176;28;20408;-77
2022/09/10 03:16:52;;;;;;;14.23;12.77;;;16.10;99.90;;;;;;5071395;28;20020;-76
2022/09/10 03:19:18;;;;;;;13.23;12.13;;;16.10;99.90;;;;;;5060505;28;20424;-74
2022/09/10 03:21:46;;;;;;;12.68;11.57;;;16.10;99.90;;;;;;5053414;28;20021;-74
2022/09/10 03:24:12;;;;;;;13.95;12.55;;;16.20;99.90;;;;;;5054905;28;20085;-74
2022/09/10 03:26:37;;;;;;;12.77;11.52;;;16.10;99.90;;;;;;5054705;28;20101;-74
2022/09/10 03:29:03;;;;;;;14.10;12.70;;;16.10;99.90;;;;;;5053881;28;20075;-74
2022/09/10 03:31:29;;;;;;;14.70;13.10;;;16.10;99.90;;;;;;5054277;28;20032;-74
2022/09/10 03:33:56;;;;;;;16.85;15.18;;;16.10;99.90;;;;;;5054494;28;20102;-74
2022/09/10 03:36:22;;;;;;;19.65;16.63;;;16.00;99.90;;;;;;5054320;28;20024;-74
2022/09/10 03:38:48;;;;;;;18.95;16.95;;;16.00;99.90;;;;;;5054445;28;20029;-74
2022/09/10 03:41:13;;;;;;;17.80;16.00;;;15.90;99.90;;;;;;5054078;28;20043;-75
2022/09/10 03:43:39;;;;;;;20.00;17.83;;;16.00;99.90;;;;;;5053163;28;20049;-75
2022/09/10 03:46:05;;;;;;;21.70;16.48;;;15.90;99.90;;;;;;5054031;28;20086;-75
2022/09/10 03:48:30;;;;;;;16.33;14.85;;;16.00;99.90;;;;;;5053726;28;20037;-74
2022/09/10 03:50:56;;;;;;;17.13;14.90;;;16.00;99.90;;;;;;5052795;28;20028;-75
2022/09/10 03:53:22;;;;;;;18.95;17.08;;;16.00;99.90;;;;;;5053858;28;20035;-75
2022/09/10 03:55:49;;;;;;;18.55;15.93;;;16.00;99.90;;;;;;5054546;28;20021;-75
2022/09/10 03:58:16;;;;;;;17.70;16.00;;;16.00;99.90;;;;;;5053189;28;20029;-75
2022/09/10 04:00:42;;;;;;;22.13;16.10;;;15.90;99.90;;;;;;5053615;28;20600;-74
2022/09/10 04:03:09;;;;;;;16.55;14.90;;;16.00;99.90;;;;;;5053966;28;20046;-75
2022/09/10 04:05:39;;;;;;;16.40;14.77;;;16.00;99.90;;;;;;5053312;28;20060;-75
2022/09/10 04:08:06;;;;;;;14.48;13.23;;;16.10;99.90;;;;;;5053933;28;20156;-75
2022/09/10 04:10:32;;;;;;;12.48;11.13;;;16.10;99.90;;;;;;5053849;28;20033;-74
2022/09/10 04:12:58;;;;;;;9.27;8.38;;;16.20;99.90;;;;;;5053401;28;20029;-74
2022/09/10 04:15:24;;;;;;;9.30;5.90;;;16.20;99.90;;;;;;5053292;28;20028;-73
2022/09/10 04:17:50;;;;;;;6.85;4.22;;;16.20;99.90;;;;;;5052875;28;20104;-75
2022/09/10 04:20:20;;;;;;;6.63;3.35;;;16.20;99.90;;;;;;5053941;28;20029;-75
2022/09/10 04:22:47;;;;;;;7.78;4.20;;;16.20;99.90;;;;;;5053223;28;20075;-75
2022/09/10 04:25:13;;;;;;;5.60;4.30;;;16.20;99.90;;;;;;5052651;28;20083;-75
2022/09/10 04:27:38;;;;;;;8.77;5.55;;;16.10;99.90;;;;;;5053491;28;20057;-75
2022/09/10 04:30:08;;;;;;;10.73;5.80;;;16.00;99.90;;;;;;5053310;28;20056;-75
2022/09/10 04:32:34;;;;;;;9.57;6.13;;;15.90;99.90;;;;;;5052577;28;20078;-75
2022/09/10 04:35:01;;;;;;;12.10;6.82;;;15.90;99.90;;;;;;5053569;28;20473;-75
2022/09/10 04:37:27;;;;;;;12.40;8.90;;;15.90;99.90;;;;;;5053180;28;20108;-75
2022/09/10 04:39:53;;;;;;;12.65;9.05;;;15.80;99.90;;;;;;5052619;28;20052;-75
2022/09/10 04:42:19;;;;;;;18.15;9.52;;;15.80;99.90;;;;;;5053319;28;20067;-75
2022/09/10 04:44:50;;;;;;;17.58;10.65;;;15.80;99.90;;;;;;5053200;28;20029;-75
2022/09/10 04:47:17;;;;;;;10.98;9.80;;;15.80;99.90;;;;;;5052363;28;20036;-74
2022/09/10 04:49:43;;;;;;;17.10;12.07;;;15.80;99.90;;;;;;5052917;28;20519;-74
2022/09/10 04:52:12;;;;;;;15.10;12.63;;;15.80;99.90;;;;;;5055090;28;20072;-74
2022/09/10 04:54:38;;;;;;;17.90;13.65;;;15.90;99.90;;;;;;5056289;28;20025;-74
2022/09/10 04:57:04;;;;;;;15.20;11.77;;;16.00;99.90;;;;;;5057024;28;20108;-74
2022/09/10 04:59:30;;;;;;;16.40;12.65;;;16.00;99.90;;;;;;5056728;28;20029;-76
2022/09/10 05:01:56;;;;;;;18.65;13.15;;;16.10;99.90;;;;;;5056101;28;20476;-75
2022/09/10 05:04:22;;;;;;;22.55;15.45;;;16.10;99.90;;;;;;5056751;28;20376;-74
2022/09/10 05:06:49;;;;;;;17.83;14.60;;;16.10;99.90;;;;;;5056223;28;20182;-74
2022/09/10 05:09:15;;;;;;;16.10;12.35;;;16.20;99.90;;;;;;5056911;28;20037;-74
2022/09/10 05:11:41;;;;;;;17.63;14.05;;;16.20;99.90;;;;;;5056454;28;20060;-74
2022/09/10 05:14:07;;;;;;;20.63;13.80;;;16.20;99.90;;;;;;5056065;28;20033;-74
2022/09/10 05:16:37;;;;;;;14.68;13.40;;;16.20;99.90;;;;;;5056473;28;20021;-74
2022/09/10 05:19:02;;;;;;;19.65;13.98;;;16.20;99.90;;;;;;5056579;28;20074;-74
2022/09/10 05:21:29;;;;;;;14.35;12.75;;;16.20;99.90;;;;;;5055421;28;20602;-74
2022/09/10 05:23:55;;;;;;;13.52;11.98;;;16.20;99.90;;;;;;5056106;28;20063;-74
2022/09/10 05:26:22;;;;;;;13.55;12.15;;;16.20;99.90;;;;;;5056341;28;20040;-74
2022/09/10 05:28:47;;;;;;;19.17;13.23;;;16.10;99.90;;;;;;5055645;28;20041;-74
2022/09/10 05:31:13;;;;;;;14.23;12.23;;;16.00;99.90;;;;;;5056446;28;20540;-74
2022/09/10 05:33:39;;;;;;;13.75;12.45;;;16.00;99.90;;;;;;5056360;28;20029;-73
2022/09/10 05:36:07;;;;;;;13.25;12.10;;;16.00;99.90;;;;;;5055235;28;20032;-73
2022/09/10 05:38:34;;;;;;;12.90;11.52;;;15.90;99.90;;;;;;5056153;28;20029;-74
2022/09/10 05:40:59;;;;;;;15.70;12.82;;;15.90;99.90;;;;;;5056224;28;20154;-74
2022/09/10 05:43:26;;;;;;;19.92;13.95;;;15.90;99.90;;;;;;5055711;28;20096;-74
2022/09/10 05:45:52;;;;;;;15.35;13.32;;;15.90;99.90;;;;;;5056842;28;20035;-75
2022/09/10 05:48:17;;;;;;;17.08;14.05;;;16.00;99.90;;;;;;5059709;28;20112;-76
2022/09/10 05:50:44;;;;;;;15.98;13.48;;;16.00;99.90;;;;;;5060521;28;20099;-74
2022/09/10 05:53:10;;;;;;;21.30;16.20;;;16.00;99.90;;;;;;5062098;28;20032;-75
2022/09/10 05:55:35;;;;;;;15.52;12.77;;;16.10;99.90;;;;;;5068617;28;20064;-76
2022/09/10 05:58:01;;;;;;;16.25;13.43;;;16.30;99.90;;;;;;5067969;28;20029;-75
2022/09/10 06:00:27;;;;;;;16.90;13.00;;;16.30;99.90;;;;;;5064658;28;20028;-76
2022/09/10 06:02:53;;;;;;;16.10;12.88;;;16.40;99.90;;;;;;5056239;28;20033;-75
2022/09/10 06:05:21;;;;;;;12.55;11.25;;;16.40;99.90;;;;;;5054925;28;20025;-75
2022/09/10 06:07:47;;;;;;;16.50;11.60;;;16.50;99.90;;;;;;5055432;28;20029;-75
2022/09/10 06:10:16;;;;;;;20.98;11.50;;;16.50;99.90;;;;;;5055012;28;20055;-76
2022/09/10 06:12:50;;;;;;;70.78;19.45;;;16.60;99.90;;;;;;5055239;28;20389;-75
2022/09/10 06:15:16;;;;;;;16.48;12.60;;;16.50;99.90;;;;;;5055396;28;20029;-75
2022/09/10 06:17:42;;;;;;;18.45;11.45;;;16.60;99.90;;;;;;5054555;28;20102;-75
2022/09/10 06:20:08;;;;;;;18.10;11.70;;;16.60;99.90;;;;;;5055495;28;20056;-75
2022/09/10 06:22:34;;;;;;;72.63;16.27;;;16.60;99.90;;;;;;5054547;28;20060;-75
2022/09/10 06:25:00;;;;;;;85.13;20.02;;;16.70;99.90;;;;;;5053348;28;20079;-75
2022/09/10 06:27:25;;;;;;;29.20;11.25;;;16.70;99.90;;;;;;5054233;28;20021;-74
2022/09/10 06:29:51;;;;;;;16.95;11.25;;;16.60;99.90;;;;;;5054112;28;20063;-74
2022/09/10 06:32:17;;;;;;;19.33;11.32;;;16.70;99.90;;;;;;5053035;28;20388;-75
2022/09/10 06:34:42;;;;;;;14.63;10.57;;;16.60;99.90;;;;;;5053787;28;20044;-75
2022/09/10 06:37:08;;;;;;;14.13;10.13;;;16.70;99.90;;;;;;5053930;28;20059;-74
2022/09/10 06:39:34;;;;;;;12.50;9.43;;;16.70;99.90;;;;;;5053170;28;20048;-75
2022/09/10 06:42:00;;;;;;;13.38;8.93;;;16.80;99.90;;;;;;5054079;28;20052;-75
2022/09/10 06:44:28;;;;;;;15.27;9.55;;;16.80;99.90;;;;;;5053937;28;20056;-75
2022/09/10 06:46:53;;;;;;;13.07;8.82;;;16.80;99.90;;;;;;5053233;28;20029;-75
2022/09/10 06:49:20;;;;;;;17.25;8.80;;;16.90;99.90;;;;;;5053846;28;20354;-75
2022/09/10 06:51:46;;;;;;;16.42;8.38;;;17.00;99.90;;;;;;5053785;28;20041;-74
2022/09/10 06:54:11;;;;;;;10.52;8.48;;;17.10;99.90;;;;;;5052679;28;20075;-75
2022/09/10 06:56:37;;;;;;;15.80;8.35;;;17.20;99.90;;;;;;5053662;28;20027;-74
2022/09/10 06:59:03;;;;;;;10.15;7.20;;;17.30;99.90;;;;;;5053554;28;20028;-74
2022/09/10 07:01:29;;;;;;;11.48;6.82;;;17.40;99.90;;;;;;5052780;28;20048;-74
2022/09/10 07:03:56;;;;;;;13.80;8.57;;;17.50;99.90;;;;;;5053427;28;20060;-75
2022/09/10 07:06:22;;;;;;;9.20;6.65;;;17.50;99.90;;;;;;5053340;28;20025;-75
2022/09/10 07:08:54;;;;;;;13.27;6.82;;;17.60;99.90;;;;;;5053121;28;20384;-74
2022/09/10 07:11:19;;;;;;;9.15;5.82;;;17.70;99.90;;;;;;5053567;28;20051;-75
2022/09/10 07:13:50;;;;;;;9.77;5.40;;;17.80;99.90;;;;;;5051965;28;20544;-75
2022/09/10 07:16:20;;;;;;;10.15;4.30;;;17.90;99.90;;;;;;5053264;28;20381;-75
2022/09/10 07:18:50;;;;;;;6.78;4.10;;;18.00;99.90;;;;;;5053408;28;20033;-75
2022/09/10 07:21:17;;;;;;;8.93;3.60;;;18.10;99.90;;;;;;5052444;28;20029;-76
2022/09/10 07:23:43;;;;;;;6.53;3.40;;;18.20;99.90;;;;;;5017000;28;1055360;-76
2022/09/10 07:26:11;;;;;;;7.25;3.22;;;18.30;99.90;;;;;;5053978;28;20379;-76
2022/09/10 07:28:38;;;;;;;5.90;3.00;;;18.30;99.90;;;;;;5053662;28;20039;-75
2022/09/10 07:31:12;;;;;;;7.85;2.20;;;18.40;99.90;;;;;;5054311;28;20031;-76
2022/09/10 07:33:38;;;;;;;6.88;2.88;;;18.40;99.90;;;;;;5054162;28;20566;-76
2022/09/10 07:36:05;;;;;;;9.23;2.50;;;18.30;99.90;;;;;;5053177;28;20029;-77
2022/09/10 07:38:31;;;;;;;6.80;2.38;;;18.40;99.90;;;;;;5053814;28;20033;-75
2022/09/10 07:40:59;;;;;;;9.05;3.28;;;18.40;99.90;;;;;;5053582;28;20492;-75
2022/09/10 07:43:24;;;;;;;3.58;2.30;;;18.40;99.90;;;;;;5053009;28;20376;-76
2022/09/10 07:45:50;;;;;;;7.07;2.35;;;18.40;99.90;;;;;;5053496;28;20025;-76
2022/09/10 07:48:15;;;;;;;3.63;1.50;;;18.40;99.90;;;;;;5053551;28;20025;-76
2022/09/10 07:50:41;;;;;;;4.15;1.48;;;18.40;99.90;;;;;;5052669;28;20025;-76
2022/09/10 07:53:07;;;;;;;3.38;1.98;;;18.40;99.90;;;;;;5053595;28;20530;-76
2022/09/10 07:55:33;;;;;;;7.10;2.00;;;18.30;99.90;;;;;;5053518;28;20025;-76
2022/09/10 07:57:58;;;;;;;3.90;2.00;;;18.30;99.90;;;;;;5052699;28;20025;-76
2022/09/10 08:00:24;;;;;;;4.47;1.85;;;18.30;99.90;;;;;;5053297;28;20025;-75
2022/09/10 08:02:49;;;;;;;6.68;2.15;;;18.30;99.90;;;;;;5052840;28;20465;-75
2022/09/10 08:05:15;;;;;;;3.40;1.50;;;18.30;99.90;;;;;;5053408;28;20086;-76
2022/09/10 08:07:41;;;;;;;5.25;1.30;;;18.40;99.90;;;;;;5053347;28;20025;-75
2022/09/10 08:10:09;;;;;;;2.60;1.10;;;18.50;99.90;;;;;;5052556;28;20033;-76
2022/09/10 08:12:36;;;;;;;5.10;1.20;;;18.60;99.90;;;;;;5053518;28;20032;-76
2022/09/10 08:15:03;;;;;;;4.85;1.40;;;18.70;99.90;;;;;;5053182;28;20029;-75
2022/09/10 08:17:29;;;;;;;4.07;1.20;;;18.80;99.90;;;;;;5052416;28;20477;-76
2022/09/10 08:19:55;;;;;;;6.18;1.88;;;18.90;99.90;;;;;;5053092;28;20492;-76
2022/09/10 08:22:21;;;;;;;7.97;2.28;;;19.00;99.90;;;;;;5053073;28;20412;-76
2022/09/10 08:24:47;;;;;;;7.65;2.13;;;19.20;99.90;;;;;;5052569;28;20021;-76
2022/09/10 08:27:14;;;;;;;5.68;1.42;;;19.30;99.90;;;;;;5055690;28;20025;-76
2022/09/10 08:29:40;;;;;;;3.92;1.20;;;19.60;99.90;;;;;;5057026;28;20489;-76
2022/09/10 08:32:06;;;;;;;3.63;2.00;;;19.70;99.90;;;;;;5056250;28;20029;-75
2022/09/10 08:34:33;;;;;;;4.13;1.48;;;19.80;99.90;;;;;;5056921;28;20384;-75
2022/09/10 08:36:58;;;;;;;4.55;1.30;;;20.00;99.90;;;;;;5057232;28;20029;-76
2022/09/10 08:39:24;;;;;;;3.53;1.30;;;19.90;99.90;;;;;;5056460;28;20028;-74
2022/09/10 08:42:05;;;;;;;10.52;9.45;;;19.80;99.90;;;;;;5057126;28;20369;-77
2022/09/10 08:44:42;;;;;;;17.33;10.57;;;19.50;99.90;;;;;;5056977;28;20025;-76
2022/09/10 08:47:29;;;;;;;13.43;11.45;;;19.20;99.90;;;;;;5056541;28;20117;-76
2022/09/10 08:50:12;;;;;;;16.00;12.82;;;18.70;99.90;;;;;;5056936;28;20037;-76
2022/09/10 08:52:50;;;;;;;19.20;13.70;;;18.40;99.90;;;;;;5056178;28;20025;-75
2022/09/10 08:55:16;;;;;;;17.17;13.27;;;18.00;99.90;;;;;;5056639;28;20025;-75
2022/09/10 08:58:00;;;;;;;23.52;16.50;;;17.80;99.90;;;;;;5056519;28;20032;-75
2022/09/10 09:00:38;;;;;;;18.98;16.60;;;17.60;99.90;;;;;;5055989;28;20052;-76
2022/09/10 09:03:22;;;;;;;22.27;18.90;;;17.50;99.90;;;;;;5056694;28;20032;-76
2022/09/10 09:05:49;;;;;;;22.88;17.35;;;17.60;99.90;;;;;;5056757;28;20439;-76
2022/09/10 09:08:24;;;;;;;27.33;18.20;;;17.80;99.90;;;;;;5055687;28;20029;-76
2022/09/10 09:11:04;;;;;;;17.58;15.77;;;18.20;99.90;;;;;;5056650;28;20028;-76
2022/09/10 09:13:51;;;;;;;14.82;10.70;;;18.20;99.90;;;;;;5055909;28;20104;-76
2022/09/10 09:16:20;;;;;;;10.65;9.65;;;18.20;99.90;;;;;;5056166;28;20492;-76
2022/09/10 09:18:48;;;;;;;10.52;9.52;;;18.20;99.90;;;;;;5055060;28;20039;-76
2022/09/10 09:21:24;;;;;;;14.02;11.05;;;18.20;99.90;;;;;;5055582;28;20032;-76
2022/09/10 09:23:57;;;;;;;12.70;11.48;;;18.30;99.90;;;;;;5056191;28;20083;-75
2022/09/10 09:26:34;;;;;;;15.43;11.55;;;18.50;99.90;;;;;;5056307;28;20055;-75
2022/09/10 09:29:17;;;;;;;13.30;12.15;;;18.50;99.90;;;;;;5055337;28;20036;-76
2022/09/10 09:31:49;;;;;;;15.10;12.88;;;18.60;99.90;;;;;;5056118;28;20405;-75
2022/09/10 09:34:32;;;;;;;17.50;15.73;;;18.80;99.90;;;;;;5055433;28;20024;-75
2022/09/10 09:37:10;;;;;;;15.50;13.85;;;18.90;99.90;;;;;;5055781;28;20095;-76
2022/09/10 09:39:44;;;;;;;15.52;14.00;;;19.10;99.90;;;;;;5056057;28;20029;-76
2022/09/10 09:42:14;;;;;;;15.35;13.63;;;19.20;99.90;;;;;;5055543;28;20082;-75
2022/09/10 09:45:01;;;;;;;14.90;12.02;;;19.40;99.90;;;;;;5056059;28;20035;-75
2022/09/10 09:47:27;;;;;;;14.13;12.73;;;19.60;99.90;;;;;;5055802;28;20037;-75
2022/09/10 09:49:52;;;;;;;12.35;10.18;;;19.70;99.90;;;;;;5054868;28;20542;-75
2022/09/10 09:52:21;;;;;;;6.85;6.25;;;19.80;99.90;;;;;;5055823;28;20021;-75
2022/09/10 09:54:57;;;;;;;8.77;7.57;;;19.80;99.90;;;;;;5055658;28;20032;-75
2022/09/10 09:57:23;;;;;;;7.85;6.75;;;19.80;99.90;;;;;;5055144;28;20025;-76
2022/09/10 09:59:49;;;;;;;8.57;7.88;;;19.70;99.90;;;;;;5055638;28;20104;-75
2022/09/10 10:02:20;;;;;;;7.68;6.35;;;19.70;99.90;;;;;;5054709;28;20048;-75
2022/09/10 10:05:22;;;;;;;9.73;8.93;;;19.90;99.90;;;;;;5055565;28;20021;-76
2022/09/10 10:07:48;;;;;;;8.07;7.38;;;20.20;99.90;;;;;;5051020;28;20033;-76
2022/09/10 10:10:26;;;;;;;8.52;7.82;;;20.40;99.90;;;;;;5055106;28;20548;-76
2022/09/10 10:12:53;;;;;;;7.28;6.78;;;20.50;99.90;;;;;;5059492;28;20024;-75
2022/09/10 10:15:40;;;;;;;7.78;7.07;;;20.40;99.90;;;;;;5065757;28;20029;-76
2022/09/10 10:18:30;;;;;;;5.03;4.63;;;20.20;99.90;;;;;;5064163;28;20029;-75
2022/09/10 10:21:29;;;;;;;5.67;5.27;;;20.00;99.90;;;;;;5065017;28;20032;-75
2022/09/10 10:23:54;;;;;;;5.28;4.78;;;19.70;99.90;;;;;;5059827;28;20045;-74
2022/09/10 10:26:20;;;;;;;4.30;4.00;;;19.60;99.90;;;;;;5064244;28;20025;-75
2022/09/10 10:28:52;;;;;;;5.38;3.55;;;19.60;99.90;;;;;;5059910;28;20433;-75
2022/09/10 10:31:19;;;;;;;3.95;3.63;;;19.80;99.90;;;;;;5054370;28;20087;-75
2022/09/10 10:34:16;;;;;;;5.20;4.80;;;20.00;99.90;;;;;;5055367;28;20033;-75
2022/09/10 10:37:06;;;;;;;4.45;4.05;;;20.10;99.90;;;;;;5054999;28;20021;-76
2022/09/10 10:39:59;;;;;;;3.28;3.00;;;20.20;99.90;;;;;;5053907;28;20028;-76
2022/09/10 10:42:48;;;;;;;3.00;2.75;;;20.20;99.90;;;;;;5054645;28;20419;-75
2022/09/10 10:45:29;;;;;;;3.47;3.17;;;20.30;99.90;;;;;;5054051;28;20028;-75
2022/09/10 10:48:21;;;;;;;3.72;3.30;;;20.40;99.90;;;;;;5054666;28;20084;-74
2022/09/10 10:50:49;;;;;;;4.07;3.70;;;20.40;99.90;;;;;;5054175;28;20036;-76
2022/09/10 10:53:35;;;;;;;5.32;4.47;;;20.60;99.90;;;;;;5053898;28;20548;-74
2022/09/10 10:56:10;;;;;;;7.90;7.18;;;20.70;99.90;;;;;;5054559;28;20052;-75
2022/09/10 10:58:58;;;;;;;9.35;8.55;;;20.60;99.90;;;;;;5053650;28;20465;-75
2022/09/10 11:01:27;;;;;;;9.15;8.25;;;20.40;99.90;;;;;;5054373;28;20511;-75
2022/09/10 11:04:21;;;;;;;7.80;7.20;;;20.20;99.90;;;;;;5054451;28;20029;-74
2022/09/10 11:06:56;;;;;;;8.18;7.38;;;20.10;99.90;;;;;;5053721;28;20025;-77
2022/09/10 11:09:46;;;;;;;7.97;7.28;;;19.90;99.90;;;;;;5054595;28;20388;-76
2022/09/10 11:12:25;;;;;;;8.00;7.35;;;19.80;99.90;;;;;;5054431;28;20099;-76
2022/09/10 11:15:02;;;;;;;7.93;7.20;;;19.80;99.90;;;;;;5053976;28;20040;-76
2022/09/10 11:17:37;;;;;;;9.70;8.90;;;19.80;99.90;;;;;;5054196;28;20029;-77
2022/09/10 11:20:17;;;;;;;8.88;8.18;;;19.90;99.90;;;;;;5053466;28;20436;-77
2022/09/10 11:23:02;;;;;;;;;;;20.10;99.90;;;;;;5054389;28;20135;-76
2022/09/10 11:25:35;;;;;;;7.45;6.85;;;20.40;99.90;;;;;;5053860;28;20349;-77
2022/09/10 11:28:16;;;;;;;6.50;6.03;;;20.60;99.90;;;;;;5053014;28;20357;-77
2022/09/10 11:30:47;;;;;;;6.30;5.70;;;20.60;99.90;;;;;;5053938;28;20032;-78
2022/09/10 11:33:27;;;;;;;5.95;5.45;;;20.60;99.90;;;;;;5054063;28;20037;-75
2022/09/10 11:36:07;;;;;;;6.05;5.50;;;20.40;99.90;;;;;;5053138;28;20037;-75
2022/09/10 11:38:51;;;;;;;7.45;6.50;;;20.40;99.90;;;;;;5053784;28;20048;-77
2022/09/10 11:41:31;;;;;;;6.00;5.50;;;20.30;99.90;;;;;;5053041;28;20021;-76
2022/09/10 11:44:28;;;;;;;9.30;5.73;;;20.30;99.90;;;;;;5053515;28;20029;-76
2022/09/10 11:47:02;;;;;;;5.38;3.58;;;20.30;99.90;;;;;;5053450;28;20608;-75
2022/09/10 11:49:47;;;;;;;3.38;3.08;;;20.30;99.90;;;;;;5052870;28;20033;-75
2022/09/10 11:52:14;;;;;;;3.80;3.42;;;20.10;99.90;;;;;;5053649;28;20382;-76
2022/09/10 11:54:41;;;;;;;4.97;4.30;;;20.10;99.90;;;;;;5053785;28;20465;-75
2022/09/10 11:57:26;;;;;;;5.63;5.13;;;20.20;99.90;;;;;;5053868;28;20362;-76
2022/09/10 12:00:17;;;;;;;5.65;5.10;;;20.50;99.90;;;;;;5053442;28;20051;-76
2022/09/10 12:03:19;;;;;;;5.40;4.80;;;20.70;99.90;;;;;;5052839;28;20488;-76
2022/09/10 12:05:55;;;;;;;4.28;3.95;;;21.10;99.90;;;;;;5053627;28;20110;-77
2022/09/10 12:09:01;;;;;;;4.15;3.72;;;21.40;99.90;;;;;;5053467;28;20500;-77
2022/09/10 12:11:43;;;;;;;3.00;2.80;;;21.40;99.90;;;;;;5047320;28;20041;-77
2022/09/10 12:14:15;;;;;;;5.60;4.50;;;21.10;99.90;;;;;;5053402;28;20056;-77
2022/09/10 12:16:57;;;;;;;5.63;5.13;;;20.80;99.90;;;;;;5052403;28;20463;-76
2022/09/10 12:19:44;;;;;;;5.53;5.13;;;20.50;99.90;;;;;;5053320;28;20487;-77
2022/09/10 12:22:35;;;;;;;5.30;4.80;;;20.20;99.90;;;;;;5052881;28;20043;-75
2022/09/10 12:25:22;;;;;;;5.90;5.40;;;20.00;99.90;;;;;;5052731;28;20032;-75
2022/09/10 12:28:00;;;;;;;6.30;5.80;;;20.10;99.90;;;;;;5052987;28;20021;-76
2022/09/10 12:30:29;;;;;;;5.43;5.03;;;20.30;99.90;;;;;;5052536;28;20041;-75
2022/09/10 12:32:59;;;;;;;8.57;5.22;;;20.70;99.90;;;;;;5053146;28;20028;-77
2022/09/10 12:35:36;;;;;;;6.03;5.53;;;21.00;99.90;;;;;;5053272;28;20029;-75
2022/09/10 12:38:40;;;;;;;5.65;5.25;;;21.20;99.90;;;;;;5052480;28;20562;-76
2022/09/10 12:41:11;;;;;;;5.90;5.30;;;21.40;99.90;;;;;;5053070;28;20032;-75
2022/09/10 12:43:39;;;;;;;4.72;4.30;;;21.40;99.90;;;;;;5053229;28;20025;-75
2022/09/10 12:46:08;;;;;;;4.18;3.75;;;21.30;99.90;;;;;;5052383;28;20108;-76
2022/09/10 12:48:46;;;;;;;3.63;3.33;;;21.30;99.90;;;;;;5053012;28;20037;-76
2022/09/10 12:51:46;;;;;;;4.93;2.78;;;21.40;99.90;;;;;;5052493;28;20125;-77
2022/09/10 12:54:33;;;;;;;6.20;3.55;;;21.70;99.90;;;;;;5053359;28;20052;-77
2022/09/10 12:57:39;;;;;;;3.15;2.60;;;21.90;99.90;;;;;;5053127;28;20052;-77
2022/09/10 13:00:18;;;;;;;3.10;2.80;;;22.00;99.90;;;;;;5052400;28;20029;-75